Time;durP1;ratioP1;P1;durP2;ratioP2;P2;SDS_P1;SDS_P2;PMS_P1;PMS_P2;Temp;Humidity;BMP_temperature;BMP_pressure;BME280_temperature;BME280_humidity;BME280_pressure;Samples;Min_cycle;Max_cycle;Signal;HPM_P1;HPM_P2
2022/12/07 00:00:48;;;;;;;15.38;11.15;;;;;;;3.97;89.12;100812.06;4922052;29;20424;-91
2022/12/07 00:04:22;;;;;;;15.88;10.85;;;;;;;3.91;88.74;100803.56;4932748;29;20522;-90
2022/12/07 00:08:02;;;;;;;15.50;11.00;;;;;;;3.83;89.38;100816.66;4926332;29;20058;-90
2022/12/07 00:11:15;;;;;;;16.73;11.50;;;;;;;3.85;89.47;100804.53;4932459;29;20051;-91
2022/12/07 00:14:29;;;;;;;;;;;;;;;;;;;;;
2022/12/07 00:17:39;;;;;;;14.70;11.93;;;;;;;3.92;89.45;100811.31;4932597;29;20470;-91
2022/12/07 00:21:06;;;;;;;16.30;12.18;;;;;;;3.91;89.49;100809.59;4931966;29;20090;-91
2022/12/07 00:24:22;;;;;;;11.85;9.63;;;;;;;3.88;89.48;100806.22;4933413;29;20142;-90
2022/12/07 00:28:03;;;;;;;13.93;11.75;;;;;;;3.91;89.41;100808.75;4934954;29;20098;-91
2022/12/07 00:31:24;;;;;;;12.82;9.85;;;;;;;3.86;90.04;100801.09;4934164;29;20046;-92
2022/12/07 00:34:49;;;;;;;11.15;9.18;;;;;;;4.05;89.25;100803.28;4934350;29;20102;-91
2022/12/07 00:38:07;;;;;;;11.50;9.45;;;;;;;3.89;89.58;100795.84;4933943;29;20054;-91
2022/12/07 00:41:59;;;;;;;;;;;;;;;;;;;;;
2022/12/07 00:45:39;;;;;;;12.10;10.40;;;;;;;3.95;89.79;100794.84;4934600;29;20051;-91
2022/12/07 00:48:43;;;;;;;12.93;10.15;;;;;;;4.08;89.80;100787.69;4934656;29;20558;-91
2022/12/07 00:51:51;;;;;;;13.60;10.02;;;;;;;3.90;89.95;100778.59;4939967;29;20042;-92
2022/12/07 00:55:08;;;;;;;14.60;10.82;;;;;;;3.92;89.93;100785.44;4943983;29;20110;-91
2022/12/07 00:58:26;;;;;;;12.20;9.48;;;;;;;3.83;90.35;100780.44;4933687;29;20118;-91
2022/12/07 01:01:48;;;;;;;;;;;;;;;;;;;;;
2022/12/07 01:05:21;;;;;;;12.20;9.70;;;;;;;4.02;90.19;100780.94;4933688;29;20965;-92
2022/12/07 01:08:57;;;;;;;12.30;10.23;;;;;;;4.17;89.60;100780.56;4938284;29;20085;-91
2022/12/07 01:12:18;;;;;;;16.70;10.68;;;;;;;3.99;90.47;100772.34;4949766;29;20046;-89
2022/12/07 01:15:28;;;;;;;12.70;11.13;;;;;;;4.09;90.14;100777.31;4953787;29;20826;-89
2022/12/07 01:19:08;;;;;;;16.98;10.77;;;;;;;4.14;89.86;100772.03;4951983;29;20094;-89
2022/12/07 01:22:36;;;;;;;13.82;10.38;;;;;;;4.02;90.60;100774.88;4951558;29;20105;-88
2022/12/07 01:25:55;;;;;;;;;;;;;;;;;;;;;
2022/12/07 01:29:41;;;;;;;;;;;;;;;;;;;;;
2022/12/07 01:33:10;;;;;;;13.90;8.43;;;;;;;4.06;88.77;100771.34;4956097;29;20141;-91
2022/12/07 01:36:29;;;;;;;8.25;7.30;;;;;;;3.92;89.34;100766.47;4955040;29;20057;-92
2022/12/07 01:39:51;;;;;;;11.07;8.38;;;;;;;3.82;89.60;100760.63;4955978;29;20050;-91
2022/12/07 01:43:07;;;;;;;10.48;7.80;;;;;;;3.84;88.99;100764.03;4955499;29;20042;-93
2022/12/07 01:46:49;;;;;;;10.18;7.68;;;;;;;3.80;89.19;100765.00;4955873;29;20078;-93
2022/12/07 01:50:18;;;;;;;12.50;8.43;;;;;;;3.77;88.76;100770.22;4955643;29;20049;-93
2022/12/07 01:54:01;;;;;;;12.75;8.07;;;;;;;3.67;89.44;100774.75;4955577;29;20062;-92
2022/12/07 01:57:19;;;;;;;11.30;7.53;;;;;;;3.82;89.10;100759.78;4959294;29;20062;-92
2022/12/07 02:00:32;;;;;;;11.55;8.18;;;;;;;3.65;88.69;100760.13;4955899;29;20553;-93
2022/12/07 02:04:14;;;;;;;10.33;7.57;;;;;;;3.66;90.05;100756.66;4955886;29;20086;-93
2022/12/07 02:07:44;;;;;;;;;;;;;;;;;;;;;
2022/12/07 02:10:52;;;;;;;10.98;8.48;;;;;;;3.78;90.34;100764.16;4954864;28;20167;-91
2022/12/07 02:14:09;;;;;;;9.32;8.02;;;;;;;3.68;89.93;100754.91;4959283;29;20046;-91
2022/12/07 02:17:49;;;;;;;10.75;8.70;;;;;;;3.83;89.89;100752.00;4959460;29;20049;-92
2022/12/07 02:22:07;;;;;;;11.90;8.57;;;;;;;3.90;89.49;100745.81;4959081;29;20062;-91
2022/12/07 02:26:04;;;;;;;12.20;8.88;;;;;;;3.87;89.49;100742.44;4905196;28;20075;-91
2022/12/07 02:29:27;;;;;;;10.65;8.45;;;;;;;3.78;89.54;100745.22;4959547;29;20090;-92
2022/12/07 02:33:10;;;;;;;10.75;7.95;;;;;;;3.89;89.66;100738.06;4959235;29;20043;-93
2022/12/07 02:36:37;;;;;;;11.38;8.55;;;;;;;4.06;88.99;100737.72;4959153;29;20046;-92
2022/12/07 02:39:59;;;;;;;11.25;8.10;;;;;;;4.12;89.11;100740.19;4958744;29;20045;-92
2022/12/07 02:43:33;;;;;;;11.20;8.65;;;;;;;4.16;88.88;100731.44;4958988;29;20050;-94
2022/12/07 02:47:24;;;;;;;;;;;;;;;;;;;;;
2022/12/07 02:50:56;;;;;;;11.45;9.98;;;;;;;4.05;88.67;100733.41;4958216;29;20558;-90
2022/12/07 02:54:16;;;;;;;10.40;8.88;;;;;;;4.06;88.89;100727.38;4958472;29;20050;-91
2022/12/07 02:58:18;;;;;;;12.90;10.07;;;;;;;4.24;89.17;100737.28;4957874;29;20050;-91
2022/12/07 03:02:12;;;;;;;12.60;9.18;;;;;;;4.12;88.72;100730.66;4957772;29;20047;-90
2022/12/07 03:05:54;;;;;;;13.65;9.15;;;;;;;3.92;90.48;100733.69;4968796;28;20050;-91
2022/12/07 03:09:39;;;;;;;12.05;8.25;;;;;;;4.08;91.01;100729.00;4958264;29;20070;-91
2022/12/07 03:13:09;;;;;;;13.00;9.82;;;;;;;4.17;89.23;100727.97;4958654;29;20102;-91
2022/12/07 03:16:52;;;;;;;;;;;;;;;;;;;;;
2022/12/07 03:20:28;;;;;;;10.60;8.38;;;;;;;4.22;90.20;100720.13;4958125;29;20077;-93
2022/12/07 03:24:11;;;;;;;12.38;9.10;;;;;;;4.46;89.80;100724.69;4957766;28;20057;-93
2022/12/07 03:27:32;;;;;;;10.93;8.20;;;;;;;4.37;90.41;100724.91;4914710;28;20046;-93
2022/12/07 03:31:41;;;;;;;;;;;;;;;;;;;;;
2022/12/07 03:34:55;;;;;;;12.85;8.73;;;;;;;4.47;90.00;100717.78;4956390;28;20057;-92
2022/12/07 03:38:30;;;;;;;11.43;8.10;;;;;;;4.32;91.04;100724.19;4957991;29;20110;-92
2022/12/07 03:41:42;;;;;;;10.70;9.00;;;;;;;4.30;91.08;100724.19;4957811;29;20106;-92
2022/12/07 03:45:00;;;;;;;11.38;9.02;;;;;;;4.34;90.71;100720.69;4957730;29;20049;-91
2022/12/07 03:48:37;;;;;;;11.02;9.02;;;;;;;4.32;90.87;100722.44;4957290;29;20513;-92
2022/12/07 03:51:59;;;;;;;13.02;10.20;;;;;;;4.17;89.87;100717.63;4957535;29;20438;-91
2022/12/07 03:55:18;;;;;;;14.02;9.98;;;;;;;4.03;92.68;100714.50;4957117;29;20098;-92
2022/12/07 03:58:36;;;;;;;14.07;11.00;;;;;;;4.23;90.39;100716.63;4957172;29;20510;-92
2022/12/07 04:02:20;;;;;;;10.85;8.52;;;;;;;4.27;91.08;100719.09;4957455;29;20074;-92
2022/12/07 04:05:28;;;;;;;12.05;8.45;;;;;;;4.42;90.68;100708.38;4956802;29;20533;-92
2022/12/07 04:08:53;;;;;;;11.48;9.23;;;;;;;4.52;90.40;100710.75;4957386;29;20045;-92
2022/12/07 04:12:08;;;;;;;15.25;10.35;;;;;;;4.37;89.83;100706.78;4957412;29;20045;-92
2022/12/07 04:15:21;;;;;;;11.60;9.65;;;;;;;4.31;90.38;100720.75;4957674;29;20143;-91
2022/12/07 04:18:38;;;;;;;12.90;9.05;;;;;;;4.30;90.99;100707.81;4957484;29;20411;-92
2022/12/07 04:22:01;;;;;;;14.38;9.27;;;;;;;4.49;90.65;100713.41;4966634;28;20115;-91
2022/12/07 04:25:13;;;;;;;13.95;9.15;;;;;;;4.43;91.21;100709.22;4957580;29;20119;-91
2022/12/07 04:28:29;;;;;;;10.63;8.20;;;;;;;4.43;90.84;100704.94;4958680;29;20050;-90
2022/12/07 04:32:01;;;;;;;11.77;9.48;;;;;;;4.62;89.67;100699.28;4957966;29;20102;-90
2022/12/07 04:36:23;;;;;;;15.13;9.73;;;;;;;4.57;90.37;100695.97;4955506;28;20106;-90
2022/12/07 04:39:40;;;;;;;11.73;8.85;;;;;;;4.45;90.82;100697.09;4956839;29;20045;-89
2022/12/07 04:42:51;;;;;;;13.27;9.38;;;;;;;4.28;91.62;100705.28;4956399;29;20090;-89
2022/12/07 04:46:14;;;;;;;14.85;9.45;;;;;;;4.49;90.96;100697.88;4956714;29;20562;-89
2022/12/07 04:49:55;;;;;;;16.00;11.18;;;;;;;4.48;90.86;100702.22;4956170;29;20565;-86
2022/12/07 04:53:20;;;;;;;18.05;9.40;;;;;;;4.37;91.13;100705.06;4956624;29;20063;-95
2022/12/07 04:56:25;;;;;;;14.25;11.70;;;;;;;4.45;91.25;100706.63;4957081;29;20042;-92
2022/12/07 04:59:32;;;;;;;12.65;9.98;;;;;;;4.41;90.95;100696.34;4955950;29;20509;-93
2022/12/07 05:02:38;;;;;;;13.60;10.75;;;;;;;4.60;89.89;100701.06;4956800;29;20054;-94
2022/12/07 05:05:53;;;;;;;16.60;11.23;;;;;;;4.55;89.59;100700.31;4956781;29;20049;-95
2022/12/07 05:09:10;;;;;;;14.70;10.82;;;;;;;4.45;89.82;100702.28;4957057;29;20097;-96
2022/12/07 05:12:25;;;;;;;12.98;10.75;;;;;;;4.42;89.46;100702.38;4953878;29;20450;-93
2022/12/07 05:15:42;;;;;;;13.63;11.18;;;;;;;4.56;88.89;100694.25;4934053;29;20248;-93
2022/12/07 05:19:26;;;;;;;15.50;11.13;;;;;;;4.43;89.87;100699.75;4954208;29;20069;-92
2022/12/07 05:22:44;;;;;;;14.23;10.32;;;;;;;4.25;89.52;100704.50;4954198;29;20135;-95
2022/12/07 05:25:56;;;;;;;12.52;10.00;;;;;;;4.22;89.29;100710.59;4954724;29;20050;-95
2022/12/07 05:29:03;;;;;;;12.20;9.90;;;;;;;4.23;89.52;100711.44;4955814;29;20070;-96
2022/12/07 05:32:09;;;;;;;13.68;9.57;;;;;;;4.34;88.87;100709.44;4935262;29;20095;-94
2022/12/07 05:35:16;;;;;;;11.07;8.48;;;;;;;4.02;89.68;100713.66;4933530;29;20043;-95
2022/12/07 05:38:30;;;;;;;13.90;9.52;;;;;;;4.01;89.25;100709.34;4932333;29;20083;-94
2022/12/07 05:45:03;;;;;;;12.00;9.57;;;;;;;3.85;90.62;100711.41;4932935;29;20110;-90
2022/12/07 05:48:10;;;;;;;10.95;8.55;;;;;;;4.02;90.13;100705.88;4935522;29;20513;-91
2022/12/07 05:51:14;;;;;;;14.32;9.23;;;;;;;4.01;89.60;100703.31;4947428;29;20046;-91
2022/12/07 05:54:18;;;;;;;10.63;8.27;;;;;;;3.91;89.90;100706.09;4944109;29;20043;-95
2022/12/07 05:57:27;;;;;;;13.18;9.77;;;;;;;3.99;89.97;100699.91;4952089;29;20094;-94
2022/12/07 06:00:41;;;;;;;10.52;9.15;;;;;;;4.18;89.86;100708.97;4954460;29;20579;-95
2022/12/07 06:03:51;;;;;;;12.45;10.05;;;;;;;4.17;90.19;100709.84;4957241;29;20086;-95
2022/12/07 06:07:05;;;;;;;10.65;8.63;;;;;;;4.23;90.05;100711.44;4949407;29;20051;-96
2022/12/07 06:10:15;;;;;;;12.68;9.45;;;;;;;3.93;91.54;100706.94;4931701;29;20047;-90
2022/12/07 06:13:19;;;;;;;14.60;9.98;;;;;;;3.97;90.51;100707.72;4933033;29;20047;-89
2022/12/07 06:16:35;;;;;;;14.18;10.32;;;;;;;3.95;90.78;100702.56;4932318;29;20566;-90
2022/12/07 06:19:43;;;;;;;12.13;8.85;;;;;;;3.83;91.24;100707.16;4933275;29;20142;-90
2022/12/07 06:23:03;;;;;;;15.75;10.32;;;;;;;3.92;90.71;100707.84;4933123;29;20050;-90
2022/12/07 06:26:17;;;;;;;11.88;9.13;;;;;;;4.03;90.37;100702.41;4942163;29;20058;-90
2022/12/07 06:29:21;;;;;;;13.48;9.38;;;;;;;4.21;89.91;100703.72;4952120;29;20113;-89
2022/12/07 06:32:44;;;;;;;11.93;8.98;;;;;;;4.30;90.22;100703.50;4950712;29;20082;-88
2022/12/07 06:35:53;;;;;;;11.48;8.38;;;;;;;4.25;90.58;100709.69;4951922;29;20062;-88
2022/12/07 06:39:00;;;;;;;13.02;8.00;;;;;;;4.34;90.54;100715.50;4950625;29;20047;-90
2022/12/07 06:42:23;;;;;;;12.85;9.00;;;;;;;4.24;90.54;100714.00;4939289;29;20094;-92
2022/12/07 06:45:45;;;;;;;13.32;8.35;;;;;;;4.23;92.56;100716.63;4932088;29;20050;-90
2022/12/07 06:48:52;;;;;;;9.30;7.70;;;;;;;4.03;93.37;100719.69;4932774;29;20054;-90
2022/12/07 06:52:37;;;;;;;12.25;8.20;;;;;;;4.18;93.84;100719.34;4931731;29;20042;-91
2022/12/07 06:56:02;;;;;;;10.80;8.38;;;;;;;4.20;92.59;100723.56;4950262;29;20277;-86
2022/12/07 06:59:10;;;;;;;11.98;8.98;;;;;;;4.22;92.63;100731.31;4951782;28;20089;-88
2022/12/07 07:02:35;;;;;;;13.23;8.82;;;;;;;4.46;92.19;100719.50;4952173;29;20179;-84
2022/12/07 07:05:47;;;;;;;13.48;9.70;;;;;;;4.47;91.70;100728.13;4952414;29;20410;-84
2022/12/07 07:08:53;;;;;;;12.20;8.88;;;;;;;4.59;91.00;100733.88;4943175;29;20050;-82
2022/12/07 07:12:19;;;;;;;14.50;7.90;;;;;;;4.53;91.22;100733.16;4933546;29;20054;-83
2022/12/07 07:15:29;;;;;;;10.82;8.68;;;;;;;4.45;91.30;100728.19;4940923;29;20094;-85
2022/12/07 07:18:43;;;;;;;10.77;8.45;;;;;;;4.46;91.87;100734.22;4933345;29;20100;-84
2022/12/07 07:21:50;;;;;;;10.35;8.57;;;;;;;4.51;91.66;100742.72;4934184;29;20051;-85
2022/12/07 07:24:53;;;;;;;9.50;7.65;;;;;;;4.40;91.40;100741.25;4952033;29;20074;-84
2022/12/07 07:27:58;;;;;;;10.02;7.68;;;;;;;4.42;91.54;100739.47;4952931;29;20082;-83
2022/12/07 07:31:15;;;;;;;9.10;7.47;;;;;;;4.40;91.48;100741.25;4952319;29;20041;-84
2022/12/07 07:34:19;;;;;;;10.95;7.05;;;;;;;4.34;92.27;100746.56;4954573;29;20098;-84
2022/12/07 07:37:26;;;;;;;17.35;11.80;;;;;;;4.51;91.83;100750.50;4956880;29;20123;-83
2022/12/07 07:40:35;;;;;;;12.95;9.95;;;;;;;4.52;91.64;100749.59;4956948;29;20078;-84
2022/12/07 07:43:39;;;;;;;13.32;10.50;;;;;;;4.49;91.72;100750.50;4955345;29;20070;-84
2022/12/07 07:46:47;;;;;;;23.63;11.10;;;;;;;4.50;91.63;100749.66;4956656;29;20164;-83
2022/12/07 07:49:54;;;;;;;11.55;7.80;;;;;;;4.46;92.01;100752.31;4955530;29;20528;-84
2022/12/07 07:53:16;;;;;;;10.02;7.70;;;;;;;4.33;93.00;100749.16;4956930;29;20121;-84
2022/12/07 07:56:23;;;;;;;10.73;7.47;;;;;;;4.46;92.47;100744.56;4956290;29;20125;-84
2022/12/07 07:59:29;;;;;;;14.68;10.30;;;;;;;4.58;91.66;100746.88;4956796;29;20061;-84
2022/12/07 08:02:53;;;;;;;15.50;11.48;;;;;;;4.56;91.81;100752.09;4956821;29;20062;-84
2022/12/07 08:05:57;;;;;;;13.68;9.80;;;;;;;4.49;91.85;100749.66;4957027;29;20042;-84
2022/12/07 08:09:10;;;;;;;14.73;10.82;;;;;;;4.42;92.24;100744.63;4956399;28;20050;-84
2022/12/07 08:12:23;;;;;;;11.70;8.48;;;;;;;4.46;93.11;100744.56;4956973;29;20427;-84
2022/12/07 08:15:32;;;;;;;13.80;8.93;;;;;;;4.63;91.80;100742.44;4956407;29;20161;-83
2022/12/07 08:18:44;;;;;;;11.75;8.65;;;;;;;4.70;91.49;100743.13;4956737;29;20054;-83
2022/12/07 08:22:03;;;;;;;14.52;8.55;;;;;;;4.68;91.66;100747.50;4956262;29;20050;-83
2022/12/07 08:25:18;;;;;;;13.68;10.43;;;;;;;4.57;91.66;100753.78;4955135;29;20045;-84
2022/12/07 08:28:23;;;;;;;14.48;9.80;;;;;;;4.43;92.21;100754.13;4955730;29;20046;-84
2022/12/07 08:31:28;;;;;;;13.88;10.05;;;;;;;4.61;91.88;100751.97;4944021;29;20462;-85
2022/12/07 08:34:40;;;;;;;14.43;9.07;;;;;;;4.55;91.91;100745.19;4955803;29;20085;-86
2022/12/07 08:37:47;;;;;;;13.75;9.30;;;;;;;4.64;91.44;100751.91;4949090;28;20517;-85
2022/12/07 08:40:58;;;;;;;16.15;11.15;;;;;;;4.64;91.45;100754.50;4950580;29;20038;-85
2022/12/07 08:44:28;;;;;;;17.20;13.02;;;;;;;4.83;90.64;100755.75;4946361;29;20068;-85
2022/12/07 08:47:55;;;;;;;17.75;14.73;;;;;;;4.75;91.16;100756.81;4944704;29;20153;-86
2022/12/07 08:51:02;;;;;;;18.55;15.70;;;;;;;4.77;92.16;100763.66;4949943;29;20054;-81
2022/12/07 08:54:10;;;;;;;20.15;16.17;;;;;;;4.85;91.61;100756.56;4949550;29;20050;-80
2022/12/07 08:57:13;;;;;;;22.65;16.52;;;;;;;4.82;91.27;100766.16;4947650;29;20403;-81
2022/12/07 09:00:20;;;;;;;19.52;13.27;;;;;;;4.87;91.31;100762.53;4944053;29;20091;-82
2022/12/07 09:03:43;;;;;;;12.68;9.93;;;;;;;4.86;89.98;100760.84;4936183;29;20083;-87
2022/12/07 09:07:04;;;;;;;12.75;9.82;;;;;;;4.85;89.57;100755.69;4950601;28;20102;-86
2022/12/07 09:10:29;;;;;;;14.57;10.13;;;;;;;4.96;90.01;100760.63;4930921;29;20094;-86
2022/12/07 09:14:00;;;;;;;13.35;9.68;;;;;;;4.86;89.14;100766.03;4930370;29;20094;-86
2022/12/07 09:17:34;;;;;;;11.13;8.65;;;;;;;4.62;90.00;100766.63;4931718;29;20103;-86
2022/12/07 09:20:43;;;;;;;11.68;8.38;;;;;;;4.67;89.14;100772.56;4948372;28;20043;-86
2022/12/07 09:24:03;;;;;;;10.48;6.75;;;;;;;4.65;89.26;100762.22;4952110;29;20106;-87
2022/12/07 09:27:08;;;;;;;15.38;9.60;;;;;;;4.93;88.63;100768.47;4941079;29;20094;-86
2022/12/07 09:34:07;;;;;;;16.35;10.02;;;;;;;4.92;88.29;100762.44;4930616;29;20106;-87
2022/12/07 09:37:14;;;;;;;11.77;8.93;;;;;;;4.71;89.05;100761.22;4947981;29;20082;-86
2022/12/07 09:40:31;;;;;;;13.18;7.85;;;;;;;4.55;89.33;100759.88;4952561;29;20403;-87
2022/12/07 09:43:43;;;;;;;10.20;6.15;;;;;;;4.60;88.94;100763.22;4948769;29;20054;-86
2022/12/07 09:46:59;;;;;;;10.95;7.05;;;;;;;4.63;87.95;100766.59;4939837;29;20047;-87
2022/12/07 09:50:28;;;;;;;9.68;7.35;;;;;;;4.75;87.39;100762.00;4932254;29;20477;-86
2022/12/07 09:53:46;;;;;;;10.57;6.13;;;;;;;4.61;88.68;100759.75;4940036;29;20134;-86
2022/12/07 09:56:53;;;;;;;8.80;6.10;;;;;;;5.00;87.90;100757.06;4932857;29;20441;-84
2022/12/07 10:00:10;;;;;;;11.70;6.65;;;;;;;5.00;85.99;100744.09;4935242;29;20070;-85
2022/12/07 10:03:23;;;;;;;10.80;5.35;;;;;;;5.04;85.17;100744.00;4941215;29;20149;-85
2022/12/07 10:06:33;;;;;;;9.77;5.72;;;;;;;4.99;86.11;100739.81;4935550;29;20050;-85
2022/12/07 10:09:40;;;;;;;8.30;4.90;;;;;;;4.84;86.75;100735.84;4946327;29;20102;-86
2022/12/07 10:13:12;;;;;;;9.23;6.07;;;;;;;4.88;87.70;100743.53;4947244;29;20039;-87
2022/12/07 10:16:26;;;;;;;11.63;6.88;;;;;;;4.63;88.67;100737.25;4941221;29;20413;-86
2022/12/07 10:19:38;;;;;;;9.85;6.40;;;;;;;4.73;89.27;100732.69;4949239;29;20093;-88
2022/12/07 10:23:06;;;;;;;11.45;6.93;;;;;;;4.66;89.41;100727.66;4949965;29;20046;-85
2022/12/07 10:26:32;;;;;;;17.70;9.30;;;;;;;4.70;88.96;100725.00;4952618;29;20050;-88
2022/12/07 10:29:39;;;;;;;10.32;6.75;;;;;;;4.75;88.84;100723.97;4949290;29;20109;-88
2022/12/07 10:32:44;;;;;;;11.02;5.35;;;;;;;4.68;88.25;100719.00;4946858;28;20570;-88
2022/12/07 10:35:50;;;;;;;12.23;5.55;;;;;;;4.64;88.47;100721.66;4951314;29;20050;-88
2022/12/07 10:39:17;;;;;;;7.63;4.95;;;;;;;4.79;88.63;100720.44;4951277;29;20054;-88
2022/12/07 10:42:31;;;;;;;7.57;5.15;;;;;;;4.75;89.00;100711.03;4943627;29;20135;-88
2022/12/07 10:45:51;;;;;;;9.15;5.90;;;;;;;4.95;87.24;100707.09;4952116;28;20045;-87
2022/12/07 10:49:02;;;;;;;8.52;4.38;;;;;;;4.82;87.42;100707.41;4948160;29;20057;-85
2022/12/07 10:52:16;;;;;;;10.70;3.60;;;;;;;4.96;86.38;100703.63;4942801;29;20157;-85
2022/12/07 10:55:51;;;;;;;5.85;3.20;;;;;;;4.83;86.93;100698.75;4951177;29;20130;-88
2022/12/07 10:59:19;;;;;;;8.18;5.22;;;;;;;4.73;86.49;100701.63;4950416;29;20121;-87
2022/12/07 11:02:43;;;;;;;12.15;5.22;;;;;;;4.63;87.30;100691.47;4940371;29;20447;-88
2022/12/07 11:05:49;;;;;;;10.98;7.32;;;;;;;4.72;88.41;100694.72;4951380;29;20038;-88
2022/12/07 11:09:02;;;;;;;15.38;9.20;;;;;;;4.98;88.71;100697.50;4954675;29;20078;-88
2022/12/07 11:12:34;;;;;;;13.55;7.80;;;;;;;5.19;87.23;100690.03;4944663;29;20190;-88
2022/12/07 11:15:47;;;;;;;15.57;8.90;;;;;;;5.58;86.68;100688.03;4945808;29;20105;-89
2022/12/07 11:19:15;;;;;;;12.48;6.10;;;;;;;5.48;86.77;100681.44;4940366;29;20085;-89
2022/12/07 11:22:40;;;;;;;5.90;3.35;;;;;;;5.43;84.84;100683.31;4950951;29;20078;-90
2022/12/07 11:26:13;;;;;;;5.22;2.92;;;;;;;5.39;86.69;100676.50;4950025;29;20101;-83
2022/12/07 11:29:33;;;;;;;6.97;3.55;;;;;;;5.67;84.76;100677.41;4944475;29;20530;-82
2022/12/07 11:32:58;;;;;;;8.65;3.60;;;;;;;5.93;83.87;100670.59;4934197;29;20075;-82
2022/12/07 11:36:30;;;;;;;13.35;6.45;;;;;;;6.01;82.36;100671.25;4948969;29;20061;-78
2022/12/07 11:39:39;;;;;;;10.30;5.47;;;;;;;5.98;82.46;100664.38;4952614;29;20122;-80
2022/12/07 11:42:51;;;;;;;7.97;3.90;;;;;;;6.10;81.87;100657.13;4935656;29;20054;-80
2022/12/07 11:50:24;;;;;;;8.10;3.92;;;;;;;5.94;82.13;100651.56;4941247;29;20178;-79
2022/12/07 11:54:14;;;;;;;6.88;3.35;;;;;;;5.62;82.37;100648.19;4914217;28;20114;-80
2022/12/07 11:57:34;;;;;;;9.45;6.78;;;;;;;5.76;83.14;100637.38;4950835;29;20118;-85
2022/12/07 12:00:52;;;;;;;9.82;5.47;;;;;;;5.67;83.57;100635.06;4951019;29;20537;-84
2022/12/07 12:04:22;;;;;;;8.75;3.97;;;;;;;5.76;82.47;100629.59;4937471;29;20086;-85
2022/12/07 12:07:32;;;;;;;14.07;6.97;;;;;;;5.49;83.21;100637.31;4948880;29;20194;-85
2022/12/07 12:10:55;;;;;;;7.25;3.85;;;;;;;5.42;83.18;100629.75;4951842;29;20402;-85
2022/12/07 12:14:19;;;;;;;9.00;3.80;;;;;;;5.57;84.49;100624.09;4953228;29;20042;-85
2022/12/07 12:17:41;;;;;;;7.65;4.47;;;;;;;5.60;85.73;100616.22;4934248;29;20046;-85
2022/12/07 12:20:51;;;;;;;7.55;3.53;;;;;;;5.55;86.85;100610.31;4934776;29;20047;-85
2022/12/07 12:24:17;;;;;;;8.40;3.40;;;;;;;5.53;86.70;100619.91;4943405;29;20438;-85
2022/12/07 12:27:29;;;;;;;11.25;5.15;;;;;;;5.47;86.60;100617.50;4946114;29;20050;-85
2022/12/07 12:30:41;;;;;;;7.95;2.80;;;;;;;5.53;87.29;100612.13;4946608;29;20049;-85
2022/12/07 12:33:51;;;;;;;5.55;2.50;;;;;;;5.43;87.27;100606.38;4953265;29;20113;-86
2022/12/07 12:36:54;;;;;;;6.03;2.17;;;;;;;5.26;87.65;100606.84;4953517;29;20046;-85
2022/12/07 12:40:17;;;;;;;9.93;2.30;;;;;;;5.29;88.09;100616.28;4943788;29;20095;-85
2022/12/07 12:43:43;;;;;;;7.22;2.58;;;;;;;5.47;88.22;100607.97;4949373;29;20074;-83
2022/12/07 12:47:01;;;;;;;16.83;11.02;;;;;;;5.51;87.24;100598.34;4953293;29;20129;-83
2022/12/07 12:50:25;;;;;;;12.40;7.28;;;;;;;5.54;87.00;100598.25;4951003;29;20090;-84
2022/12/07 12:53:41;;;;;;;11.48;6.25;;;;;;;5.63;86.67;100603.16;4951713;29;20046;-83
2022/12/07 12:57:11;;;;;;;10.60;5.20;;;;;;;5.63;86.58;100592.78;4940617;28;20050;-83
2022/12/07 13:00:28;;;;;;;13.48;4.50;;;;;;;5.75;84.83;100600.19;4950321;29;20054;-84
2022/12/07 13:03:34;;;;;;;7.32;3.40;;;;;;;5.82;85.10;100596.50;4951504;29;20055;-83
2022/12/07 13:06:38;;;;;;;8.27;3.25;;;;;;;5.75;86.48;100591.56;4952350;29;20147;-83
2022/12/07 13:10:21;;;;;;;10.95;4.53;;;;;;;5.51;85.13;100598.34;4952811;29;20094;-83
2022/12/07 13:13:35;;;;;;;10.45;2.60;;;;;;;5.24;83.32;100598.28;4952357;29;20098;-83
2022/12/07 13:17:04;;;;;;;7.60;2.63;;;;;;;5.26;83.97;100601.66;4952125;29;20444;-83
2022/12/07 13:20:07;;;;;;;8.82;3.55;;;;;;;5.31;83.52;100597.19;4952889;29;20126;-82
2022/12/07 13:23:19;;;;;;;10.95;3.00;;;;;;;5.29;83.82;100595.53;4950335;29;20050;-83
2022/12/07 13:26:28;;;;;;;8.90;3.80;;;;;;;4.87;85.68;100591.53;4949502;29;20050;-83
2022/12/07 13:29:38;;;;;;;6.82;2.10;;;;;;;4.87;83.58;100588.94;4951425;29;20058;-84
2022/12/07 13:32:50;;;;;;;4.88;1.70;;;;;;;4.51;84.64;100592.53;4952381;29;20042;-83
2022/12/07 13:35:55;;;;;;;5.70;1.67;;;;;;;4.33;86.43;100593.84;4952455;29;20081;-83
2022/12/07 13:39:16;;;;;;;5.57;2.53;;;;;;;4.24;87.29;100589.75;4947110;29;20050;-84
2022/12/07 13:42:28;;;;;;;6.28;2.15;;;;;;;4.38;86.95;100585.09;4934858;29;20051;-84
2022/12/07 13:45:49;;;;;;;8.30;2.75;;;;;;;4.58;86.84;100583.72;4932252;29;20415;-83
2022/12/07 13:49:05;;;;;;;7.22;2.47;;;;;;;4.51;86.78;100584.78;4946068;29;20066;-83
2022/12/07 13:52:27;;;;;;;7.88;3.08;;;;;;;4.47;86.80;100586.59;4933084;29;20139;-83
2022/12/07 13:55:32;;;;;;;9.55;4.30;;;;;;;4.78;88.18;100586.59;4932187;29;20101;-84
2022/12/07 13:58:35;;;;;;;11.02;2.60;;;;;;;5.06;87.55;100580.66;4947621;29;20122;-83
2022/12/07 14:01:50;;;;;;;5.28;2.78;;;;;;;5.23;86.89;100567.19;4951054;29;20514;-83
2022/12/07 14:05:22;;;;;;;5.72;1.88;;;;;;;5.35;87.00;100577.22;4952520;29;20502;-83
2022/12/07 14:08:30;;;;;;;7.43;2.13;;;;;;;5.24;86.34;100579.28;4941566;28;20175;-83
2022/12/07 14:11:41;;;;;;;8.32;3.70;;;;;;;5.21;88.73;100575.03;4947619;29;20046;-83
2022/12/07 14:14:48;;;;;;;5.13;1.95;;;;;;;5.26;89.31;100573.13;4945148;29;20038;-83
2022/12/07 14:17:54;;;;;;;8.25;2.33;;;;;;;5.16;88.79;100579.50;4951694;29;20042;-83
2022/12/07 14:21:24;;;;;;;8.23;2.05;;;;;;;5.26;87.70;100577.47;4932017;29;20059;-83
2022/12/07 14:24:49;;;;;;;6.90;2.15;;;;;;;5.36;88.96;100574.59;4953643;29;20054;-84
2022/12/07 14:27:56;;;;;;;10.20;2.55;;;;;;;5.43;89.21;100574.41;4954446;29;20050;-83
2022/12/07 14:31:03;;;;;;;5.50;2.00;;;;;;;5.39;89.90;100573.63;4954836;29;20053;-84
2022/12/07 14:34:17;;;;;;;5.72;1.88;;;;;;;5.44;89.00;100570.91;4955077;29;20046;-84
2022/12/07 14:37:20;;;;;;;7.47;3.25;;;;;;;5.56;88.50;100567.94;4954188;29;20050;-83
2022/12/07 14:40:35;;;;;;;5.53;2.40;;;;;;;5.62;88.10;100562.56;4954057;29;20054;-84
2022/12/07 14:43:39;;;;;;;5.20;2.20;;;;;;;5.65;88.13;100565.06;4935733;29;20043;-83
2022/12/07 14:46:46;;;;;;;11.27;3.80;;;;;;;5.72;87.09;100556.19;4945059;29;20395;-83
2022/12/07 14:49:53;;;;;;;5.18;1.70;;;;;;;5.46;88.43;100554.41;4954307;29;20058;-83
2022/12/07 14:53:02;;;;;;;5.70;2.08;;;;;;;5.31;89.27;100560.91;4955221;29;20069;-84
2022/12/07 14:56:07;;;;;;;9.45;2.10;;;;;;;5.43;89.31;100548.47;4954818;29;20440;-83
2022/12/07 14:59:37;;;;;;;7.78;2.10;;;;;;;5.53;88.95;100560.25;4934989;29;20115;-83
2022/12/07 15:02:52;;;;;;;5.57;1.98;;;;;;;5.40;89.19;100554.59;4939237;29;20046;-83
2022/12/07 15:05:57;;;;;;;5.55;2.20;;;;;;;5.33;89.98;100559.13;4942241;29;20041;-83
2022/12/07 15:09:02;;;;;;;9.40;2.28;;;;;;;5.46;89.49;100553.56;4954878;29;20057;-83
2022/12/07 15:12:05;;;;;;;11.52;2.85;;;;;;;5.50;89.93;100555.16;4951318;29;20090;-83
2022/12/07 15:15:12;;;;;;;;;;;;;;;5.34;89.59;100558.22;4942244;29;20652;-82
2022/12/07 15:18:19;;;;;;;8.70;2.25;;;;;;;5.21;91.25;100553.47;4944679;29;20418;-83
2022/12/07 15:21:36;;;;;;;7.05;2.13;;;;;;;5.29;90.88;100546.28;4952477;29;20110;-83
2022/12/07 15:24:52;;;;;;;5.35;1.80;;;;;;;5.33;91.02;100548.75;4949367;29;20050;-83
2022/12/07 15:27:57;;;;;;;7.13;2.20;;;;;;;5.43;89.90;100558.84;4957626;29;20046;-83
2022/12/07 15:31:01;;;;;;;6.68;2.55;;;;;;;5.26;91.12;100551.56;4956909;29;20046;-83
2022/12/07 15:34:08;;;;;;;49.75;26.38;;;;;;;5.17;92.20;100555.28;4958030;29;20049;-84
2022/12/07 15:37:23;;;;;;;19.45;10.50;;;;;;;5.03;92.04;100553.09;4953286;28;20143;-83
2022/12/07 15:40:28;;;;;;;12.65;7.53;;;;;;;5.13;91.46;100545.88;4949556;29;20042;-84
2022/12/07 15:46:53;;;;;;;7.93;3.38;;;;;;;5.10;90.33;100530.44;4952211;29;20059;-81
2022/12/07 15:49:56;;;;;;;5.45;2.55;;;;;;;5.00;90.49;100537.63;4949350;29;20102;-82
2022/12/07 15:53:03;;;;;;;7.07;2.33;;;;;;;4.97;91.22;100534.28;4946365;29;20066;-81